createdAt,value
2018-06-30T00:04:45.633Z,74.51
2018-06-30T00:09:40.732Z,74.94
2018-06-30T00:14:35.446Z,76.24
2018-06-30T00:19:30.667Z,76.49
2018-06-30T00:24:25.895Z,76.59
2018-06-30T00:29:20.902Z,75.92
2018-06-30T00:34:16.209Z,76.15
2018-06-30T00:39:11.477Z,75.55
2018-06-30T00:44:06.884Z,76.17
2018-06-30T00:49:01.928Z,75.49
2018-06-30T00:53:56.950Z,76.87
2018-06-30T00:58:52.460Z,76.20
2018-06-30T01:03:47.566Z,76.48
2018-06-30T01:08:42.737Z,77.14
2018-06-30T01:13:38.490Z,77.69
2018-06-30T01:18:33.283Z,77.17
2018-06-30T01:23:28.493Z,77.58
2018-06-30T01:28:23.514Z,77.51
2018-06-30T01:33:18.221Z,77.05
2018-06-30T01:38:13.355Z,76.95
2018-06-30T01:43:08.392Z,77.49
2018-06-30T01:48:03.417Z,78.49
2018-06-30T01:52:58.563Z,78.71
2018-06-30T01:57:53.612Z,78.45
2018-06-30T02:02:48.763Z,78.57
2018-06-30T02:07:43.957Z,77.92
2018-06-30T02:12:39.150Z,77.91
2018-06-30T02:17:34.286Z,78.25
2018-06-30T02:22:29.368Z,78.53
2018-06-30T02:27:24.424Z,78.43
2018-06-30T02:32:19.585Z,78.20
2018-06-30T02:37:14.692Z,78.42
2018-06-30T02:42:10.598Z,78.97
2018-06-30T02:47:05.655Z,78.88
2018-06-30T02:52:00.717Z,79.45
2018-06-30T02:56:55.822Z,79.99
2018-06-30T03:01:50.584Z,79.16
2018-06-30T03:06:45.574Z,79.45
2018-06-30T03:11:41.094Z,79.09
2018-06-30T03:16:36.263Z,78.97
2018-06-30T03:21:31.446Z,79.09
2018-06-30T03:26:26.357Z,80.45
2018-06-30T03:31:21.324Z,78.96
2018-06-30T03:36:16.306Z,80.29
2018-06-30T03:41:11.051Z,80.27
2018-06-30T03:46:06.056Z,80.32
2018-06-30T03:51:00.948Z,79.37
2018-06-30T03:55:56.094Z,79.57
2018-06-30T04:00:51.094Z,77.21
2018-06-30T04:05:46.067Z,74.45
2018-06-30T04:10:41.125Z,71.05
2018-06-30T04:15:36.138Z,66.58
2018-06-30T04:20:31.151Z,63.12
2018-06-30T04:25:26.153Z,60.62
2018-06-30T04:30:21.426Z,58.36
2018-06-30T04:35:16.237Z,56.75
2018-06-30T04:40:11.076Z,54.62
2018-06-30T04:45:06.081Z,52.43
2018-06-30T04:50:00.942Z,50.73
2018-06-30T04:54:56.099Z,49.01
2018-06-30T04:59:50.966Z,48.58
2018-06-30T05:04:45.852Z,46.84
2018-06-30T05:09:40.879Z,44.80
2018-06-30T05:14:35.814Z,43.62
2018-06-30T05:19:30.813Z,44.40
2018-06-30T05:24:25.924Z,41.80
2018-06-30T05:29:21.579Z,42.19
2018-06-30T05:34:16.321Z,41.27
2018-06-30T05:39:11.196Z,40.21
2018-06-30T05:44:05.948Z,40.35
2018-06-30T05:49:00.636Z,39.93
2018-06-30T05:53:55.429Z,41.76
2018-06-30T05:58:50.167Z,42.31
2018-06-30T06:03:44.947Z,41.75
2018-06-30T06:08:39.771Z,40.18
2018-06-30T06:13:34.575Z,39.85
2018-06-30T06:18:29.289Z,41.87
2018-06-30T06:23:23.987Z,42.07
2018-06-30T06:28:18.721Z,44.00
2018-06-30T06:33:13.510Z,45.96
2018-06-30T06:38:08.535Z,47.74
2018-06-30T06:43:03.363Z,47.56
2018-06-30T06:47:57.883Z,47.06
2018-06-30T06:52:52.680Z,46.75
2018-06-30T06:57:47.776Z,45.26
2018-06-30T07:02:42.629Z,44.75
2018-06-30T07:07:37.606Z,44.32
2018-06-30T07:12:32.398Z,45.88
2018-06-30T07:17:27.549Z,45.36
2018-06-30T07:22:22.490Z,45.13
2018-06-30T07:27:17.449Z,44.81
2018-06-30T07:32:12.259Z,46.97
2018-06-30T07:37:07.257Z,46.99
2018-06-30T07:42:02.137Z,47.79
2018-06-30T07:46:57.044Z,47.25
2018-06-30T07:51:52.251Z,46.82
2018-06-30T07:56:47.161Z,46.31
2018-06-30T08:01:42.150Z,47.27
2018-06-30T08:06:37.132Z,47.74
2018-06-30T08:11:32.067Z,47.18
2018-06-30T08:16:27.124Z,47.48
2018-06-30T08:21:21.729Z,48.11
2018-06-30T08:26:16.896Z,47.93
2018-06-30T08:31:11.930Z,47.23
2018-06-30T08:36:07.024Z,46.53
2018-06-30T08:41:01.990Z,47.01
2018-06-30T08:45:56.986Z,46.47
2018-06-30T08:50:51.943Z,44.77
2018-06-30T08:55:47.210Z,44.79
2018-06-30T09:00:45.621Z,44.73
2018-06-30T09:05:40.569Z,43.97
2018-06-30T09:10:35.637Z,43.71
2018-06-30T09:15:30.826Z,43.88
2018-06-30T09:20:26.038Z,43.76
2018-06-30T09:25:21.169Z,43.02
2018-06-30T09:30:16.353Z,42.12
2018-06-30T09:35:11.722Z,42.71
2018-06-30T09:40:06.823Z,43.09
2018-06-30T09:45:01.845Z,42.09
2018-06-30T09:49:56.830Z,41.95
2018-06-30T09:54:51.446Z,40.77
2018-06-30T09:59:46.023Z,40.99
2018-06-30T10:04:42.398Z,41.79
2018-06-30T10:09:37.909Z,43.63
2018-06-30T10:14:33.116Z,41.12
2018-06-30T10:19:28.194Z,40.38
2018-06-30T10:24:22.897Z,39.82
2018-06-30T10:29:17.967Z,39.49
2018-06-30T10:34:12.893Z,36.40
2018-06-30T10:39:11.556Z,35.35
2018-06-30T10:44:06.641Z,34.49
2018-06-30T10:49:01.658Z,34.29
2018-06-30T10:53:56.569Z,34.60
2018-06-30T10:58:51.650Z,34.98
2018-06-30T11:03:46.659Z,35.15
2018-06-30T11:08:41.624Z,35.21
2018-06-30T11:13:36.737Z,35.71
2018-06-30T11:18:32.162Z,34.38
2018-06-30T11:23:27.741Z,36.02
2018-06-30T11:28:22.603Z,39.70
2018-06-30T11:33:17.644Z,38.18
2018-06-30T11:38:12.995Z,37.13
2018-06-30T11:43:08.022Z,36.62
2018-06-30T11:48:03.142Z,36.92
2018-06-30T11:52:58.206Z,35.83
2018-06-30T11:57:53.189Z,36.25
2018-06-30T12:02:48.229Z,35.15
2018-06-30T12:07:42.864Z,36.15
2018-06-30T12:12:38.000Z,35.35
2018-06-30T12:17:32.968Z,34.61
2018-06-30T12:22:27.993Z,33.61
2018-06-30T12:27:23.244Z,34.19
2018-06-30T12:32:18.334Z,33.99
2018-06-30T12:37:14.087Z,33.26
2018-06-30T12:42:09.032Z,33.20
2018-06-30T12:47:04.203Z,33.04
2018-06-30T12:51:59.303Z,34.87
2018-06-30T12:56:54.621Z,34.04
2018-06-30T13:01:49.713Z,32.57
2018-06-30T13:06:44.654Z,33.16
2018-06-30T13:11:39.753Z,33.27
2018-06-30T13:16:35.224Z,33.78
2018-06-30T13:21:30.245Z,33.02
2018-06-30T13:26:25.331Z,33.66
2018-06-30T13:31:19.997Z,32.80
2018-06-30T13:36:14.919Z,32.79
2018-06-30T13:41:10.164Z,33.61
2018-06-30T13:46:05.767Z,33.90
2018-06-30T13:51:00.872Z,32.95
2018-06-30T13:55:56.322Z,33.58
2018-06-30T14:00:51.681Z,34.50
2018-06-30T14:06:50.133Z,32.98
2018-06-30T14:11:45.246Z,33.80
2018-06-30T14:16:40.699Z,33.53
2018-06-30T14:21:35.625Z,33.22
2018-06-30T14:26:30.824Z,32.55
2018-06-30T14:31:25.834Z,32.39
2018-06-30T14:36:20.951Z,33.15
2018-06-30T14:41:16.328Z,33.49
2018-06-30T14:46:11.539Z,33.04
2018-06-30T14:51:06.620Z,31.94
2018-06-30T14:56:01.485Z,32.95
2018-06-30T15:00:56.547Z,31.56
2018-06-30T15:05:51.554Z,30.64
2018-06-30T15:10:46.883Z,30.99
2018-06-30T15:15:42.158Z,32.88
2018-06-30T15:20:38.048Z,32.14
2018-06-30T15:25:33.135Z,30.72
2018-06-30T15:30:28.939Z,31.19
2018-06-30T15:35:24.239Z,32.04
2018-06-30T15:40:19.336Z,31.35
2018-06-30T15:45:14.879Z,31.48
2018-06-30T15:50:10.132Z,30.75
2018-06-30T15:55:05.228Z,31.01
2018-06-30T16:00:00.462Z,30.69
2018-06-30T16:14:07.488Z,31.16
2018-06-30T16:19:02.609Z,31.83
2018-06-30T16:23:57.893Z,31.40
2018-06-30T16:28:53.071Z,31.65
2018-06-30T16:33:48.079Z,33.16
2018-06-30T16:38:43.396Z,33.17
2018-06-30T16:43:38.554Z,34.97
2018-06-30T16:48:36.530Z,34.75
2018-06-30T16:53:32.494Z,35.67
2018-06-30T16:58:27.758Z,34.84
2018-06-30T17:03:22.619Z,36.63
2018-06-30T17:08:17.750Z,36.18
2018-06-30T17:13:12.901Z,36.94
2018-06-30T17:18:08.538Z,36.15
2018-06-30T17:23:06.747Z,36.41
2018-06-30T17:28:04.692Z,37.21
2018-06-30T17:32:59.789Z,37.01
2018-06-30T17:37:54.550Z,37.99
2018-06-30T17:42:49.602Z,36.75
2018-06-30T17:47:44.312Z,37.53
2018-06-30T17:52:39.382Z,38.34
2018-06-30T17:57:34.634Z,37.57
2018-06-30T18:02:29.364Z,37.95
2018-06-30T18:07:24.631Z,38.79
2018-06-30T18:12:20.027Z,38.74
2018-06-30T18:17:15.139Z,40.08
2018-06-30T18:22:10.342Z,39.89
2018-06-30T18:27:07.096Z,40.16
2018-06-30T18:32:02.876Z,39.31
2018-06-30T18:36:58.162Z,40.14
2018-06-30T18:41:52.955Z,39.79
2018-06-30T18:46:48.412Z,40.04
2018-06-30T18:51:43.807Z,39.75
2018-06-30T18:56:39.119Z,40.09
2018-06-30T19:01:37.507Z,41.48
2018-06-30T19:06:32.621Z,41.61
2018-06-30T19:11:27.759Z,41.24
2018-06-30T19:16:23.224Z,42.12
2018-06-30T19:21:19.103Z,42.29
2018-06-30T19:26:14.320Z,42.88
2018-06-30T19:31:09.850Z,43.61
2018-06-30T19:36:05.991Z,42.95
2018-06-30T19:41:01.497Z,43.26
2018-06-30T19:45:58.462Z,43.62
2018-06-30T19:50:54.984Z,44.32
2018-06-30T19:55:50.424Z,44.10
2018-06-30T20:00:45.879Z,44.63
2018-06-30T20:05:41.581Z,44.00
2018-06-30T20:10:36.997Z,44.21
2018-06-30T20:15:32.457Z,44.56
2018-06-30T20:20:27.981Z,45.24
2018-06-30T20:25:23.374Z,45.34
2018-06-30T20:30:19.030Z,45.60
2018-06-30T20:35:20.522Z,45.10
2018-06-30T20:40:16.004Z,46.31
2018-06-30T20:45:12.429Z,45.93
2018-06-30T20:50:07.939Z,47.20
2018-06-30T20:55:03.914Z,47.08
2018-06-30T20:59:59.245Z,47.86
2018-06-30T21:04:54.619Z,47.61
2018-06-30T21:09:50.542Z,48.96
2018-06-30T21:14:46.353Z,48.61
2018-06-30T21:19:42.132Z,49.46
2018-06-30T21:24:37.932Z,49.82
2018-06-30T21:29:33.315Z,50.06
2018-06-30T21:34:28.755Z,50.72
2018-06-30T21:39:24.572Z,50.05
2018-06-30T21:44:19.838Z,51.38
2018-06-30T21:49:15.345Z,52.03
2018-06-30T21:54:11.558Z,51.98
2018-06-30T21:59:07.019Z,52.58
2018-06-30T22:04:05.563Z,53.00
2018-06-30T22:09:01.866Z,53.36
2018-06-30T22:13:57.407Z,53.52
2018-06-30T22:18:52.877Z,54.09
2018-06-30T22:23:48.166Z,54.85
2018-06-30T22:28:43.591Z,54.38
2018-06-30T22:33:39.090Z,54.96
2018-06-30T22:38:34.375Z,54.49
2018-06-30T22:43:29.763Z,54.59
2018-06-30T22:48:25.568Z,54.75
2018-06-30T22:53:21.311Z,54.49
2018-06-30T22:58:16.982Z,54.58
2018-06-30T23:03:13.268Z,54.29
2018-06-30T23:08:09.014Z,55.37
2018-06-30T23:13:04.029Z,55.54
2018-06-30T23:17:59.408Z,55.08
2018-06-30T23:22:59.470Z,54.75
2018-06-30T23:27:55.460Z,55.04
2018-06-30T23:32:51.282Z,55.88
2018-06-30T23:37:47.208Z,56.36
2018-06-30T23:42:42.870Z,56.32
2018-06-30T23:47:37.774Z,55.94
2018-06-30T23:52:33.289Z,56.00
2018-06-30T23:57:28.492Z,56.29
